createdAt,value
2023-05-01T00:00:39.057Z,999.37
2023-05-01T00:01:39.097Z,999.36
2023-05-01T00:02:39.132Z,999.36
2023-05-01T00:03:39.269Z,999.36
2023-05-01T00:04:39.055Z,999.36
2023-05-01T00:05:39.031Z,999.35
2023-05-01T00:06:39.015Z,999.33
2023-05-01T00:07:39.012Z,999.31
2023-05-01T00:08:38.981Z,999.30
2023-05-01T00:09:39.021Z,999.28
2023-05-01T00:10:38.958Z,999.27
2023-05-01T00:11:38.976Z,999.26
2023-05-01T00:12:38.971Z,999.24
2023-05-01T00:13:38.942Z,999.23
2023-05-01T00:14:38.911Z,999.22
2023-05-01T00:15:38.928Z,999.20
2023-05-01T00:16:38.917Z,999.19
2023-05-01T00:17:38.920Z,999.16
2023-05-01T00:18:38.918Z,999.14
2023-05-01T00:19:38.890Z,999.13
2023-05-01T00:20:38.849Z,999.12
2023-05-01T00:21:38.859Z,999.11
2023-05-01T00:22:38.829Z,999.12
2023-05-01T00:23:38.898Z,999.12
2023-05-01T00:24:38.806Z,999.12
2023-05-01T00:25:38.817Z,999.10
2023-05-01T00:26:38.796Z,999.09
2023-05-01T00:27:38.812Z,999.10
2023-05-01T00:28:38.788Z,999.08
2023-05-01T00:29:38.793Z,999.06
2023-05-01T00:30:38.748Z,999.05
2023-05-01T00:31:38.862Z,999.03
2023-05-01T00:32:38.798Z,999.00
2023-05-01T00:33:38.742Z,998.99
2023-05-01T00:34:38.704Z,998.97
2023-05-01T00:35:38.744Z,998.97
2023-05-01T00:36:38.691Z,998.97
2023-05-01T00:37:38.702Z,998.97
2023-05-01T00:38:38.664Z,998.98
2023-05-01T00:39:38.676Z,998.97
2023-05-01T00:40:38.686Z,998.95
2023-05-01T00:41:38.660Z,998.93
2023-05-01T00:42:38.628Z,998.91
2023-05-01T00:43:38.644Z,998.89
2023-05-01T00:44:38.616Z,998.87
2023-05-01T00:45:38.665Z,998.84
2023-05-01T00:46:38.589Z,998.82
2023-05-01T00:47:38.667Z,998.80
2023-05-01T00:48:38.563Z,998.78
2023-05-01T00:49:38.586Z,998.77
2023-05-01T00:50:38.605Z,998.77
2023-05-01T00:51:38.552Z,998.79
2023-05-01T00:52:38.515Z,998.79
2023-05-01T00:53:38.550Z,998.81
2023-05-01T00:54:38.500Z,998.81
2023-05-01T00:55:38.562Z,998.81
2023-05-01T00:56:38.497Z,998.79
2023-05-01T00:57:38.501Z,998.78
2023-05-01T00:58:38.466Z,998.76
2023-05-01T00:59:38.473Z,998.75
2023-05-01T01:00:38.448Z,998.73
2023-05-01T01:01:38.565Z,998.71
2023-05-01T01:02:38.465Z,998.69
2023-05-01T01:03:38.442Z,998.68
2023-05-01T01:04:38.461Z,998.67
2023-05-01T01:05:38.413Z,998.68
2023-05-01T01:06:38.523Z,998.69
2023-05-01T01:07:38.407Z,998.67
2023-05-01T01:08:38.391Z,998.65
2023-05-01T01:09:38.377Z,998.61
2023-05-01T01:10:38.335Z,998.57
2023-05-01T01:11:38.353Z,998.54
2023-05-01T01:12:38.315Z,998.52
2023-05-01T01:13:38.355Z,998.52
2023-05-01T01:14:38.311Z,998.51
2023-05-01T01:15:38.311Z,998.49
2023-05-01T01:16:38.330Z,998.46
2023-05-01T01:17:38.300Z,998.44
2023-05-01T01:18:38.273Z,998.43
2023-05-01T01:19:38.265Z,998.41
2023-05-01T01:20:38.232Z,998.40
2023-05-01T01:21:38.266Z,998.40
2023-05-01T01:22:38.209Z,998.39
2023-05-01T01:23:38.254Z,998.38
2023-05-01T01:24:38.191Z,998.37
2023-05-01T01:25:38.200Z,998.37
2023-05-01T01:26:38.203Z,998.36
2023-05-01T01:27:38.183Z,998.36
2023-05-01T01:28:38.147Z,998.35
2023-05-01T01:29:38.156Z,998.33
2023-05-01T01:30:38.123Z,998.30
2023-05-01T01:31:38.210Z,998.29
2023-05-01T01:32:38.140Z,998.29
2023-05-01T01:33:38.146Z,998.29
2023-05-01T01:34:38.089Z,998.28
2023-05-01T01:35:38.120Z,998.25
2023-05-01T01:36:38.080Z,998.24
2023-05-01T01:37:38.075Z,998.23
2023-05-01T01:38:38.042Z,998.23
2023-05-01T01:39:38.099Z,998.23
2023-05-01T01:40:38.021Z,998.23
2023-05-01T01:41:38.043Z,998.22
2023-05-01T01:42:38.042Z,998.21
2023-05-01T01:43:38.011Z,998.20
2023-05-01T01:44:37.999Z,998.19
2023-05-01T01:45:37.996Z,998.17
2023-05-01T01:46:38.200Z,998.16
2023-05-01T01:47:38.025Z,998.15
2023-05-01T01:48:37.954Z,998.15
2023-05-01T01:49:37.950Z,998.13
2023-05-01T01:50:37.918Z,998.11
2023-05-01T01:51:37.942Z,998.10
2023-05-01T01:52:37.895Z,998.09
2023-05-01T01:53:38.075Z,998.09
2023-05-01T01:54:37.877Z,998.08
2023-05-01T01:55:37.922Z,998.06
2023-05-01T01:56:37.854Z,998.05
2023-05-01T01:57:37.899Z,998.04
2023-05-01T01:58:37.834Z,998.02
2023-05-01T01:59:37.880Z,998.02
2023-05-01T02:00:37.814Z,998.02
2023-05-01T02:01:37.880Z,998.00
2023-05-01T02:02:37.893Z,997.98
2023-05-01T02:03:37.972Z,997.97
2023-05-01T02:04:37.803Z,997.96
2023-05-01T02:05:37.788Z,997.94
2023-05-01T02:06:37.827Z,997.92
2023-05-01T02:07:37.748Z,997.92
2023-05-01T02:08:37.752Z,997.91
2023-05-01T02:09:37.730Z,997.91
2023-05-01T02:10:37.743Z,997.90
2023-05-01T02:11:37.736Z,997.89
2023-05-01T02:12:37.727Z,997.87
2023-05-01T02:13:37.700Z,997.86
2023-05-01T02:14:37.704Z,997.84
2023-05-01T02:15:37.681Z,997.83
2023-05-01T02:16:37.782Z,997.82
2023-05-01T02:17:37.698Z,997.80
2023-05-01T02:18:37.697Z,997.78
2023-05-01T02:19:37.630Z,997.78
2023-05-01T02:20:37.639Z,997.77
2023-05-01T02:21:37.612Z,997.76
2023-05-01T02:22:37.617Z,997.73
2023-05-01T02:23:37.609Z,997.71
2023-05-01T02:24:37.593Z,997.69
2023-05-01T02:25:37.557Z,997.67
2023-05-01T02:26:37.576Z,997.67
2023-05-01T02:27:37.545Z,997.66
2023-05-01T02:28:37.579Z,997.66
2023-05-01T02:29:37.541Z,997.64
2023-05-01T02:30:37.550Z,997.63
2023-05-01T02:31:37.526Z,997.62
2023-05-01T02:32:37.588Z,997.61
2023-05-01T02:33:37.478Z,997.60
2023-05-01T02:34:37.513Z,997.59
2023-05-01T02:35:37.476Z,997.59
2023-05-01T02:36:37.470Z,997.57
2023-05-01T02:37:37.421Z,997.54
2023-05-01T02:38:37.470Z,997.52
2023-05-01T02:39:37.418Z,997.50
2023-05-01T02:40:37.455Z,997.48
2023-05-01T02:41:37.414Z,997.47
2023-05-01T02:42:37.404Z,997.45
2023-05-01T02:43:37.386Z,997.44
2023-05-01T02:44:37.393Z,997.43
2023-05-01T02:45:37.389Z,997.41
2023-05-01T02:46:37.418Z,997.41
2023-05-01T02:47:37.369Z,997.40
2023-05-01T02:48:37.345Z,997.40
2023-05-01T02:49:37.318Z,997.41
2023-05-01T02:50:37.320Z,997.40
2023-05-01T02:51:37.312Z,997.40
2023-05-01T02:52:37.316Z,997.39
2023-05-01T02:53:37.303Z,997.38
2023-05-01T02:54:37.290Z,997.38
2023-05-01T02:55:37.253Z,997.37
2023-05-01T02:56:37.270Z,997.36
2023-05-01T02:57:37.229Z,997.36
2023-05-01T02:58:37.277Z,997.36
2023-05-01T02:59:37.209Z,997.35
2023-05-01T03:00:37.260Z,997.34
2023-05-01T03:01:37.221Z,997.33
2023-05-01T03:02:37.233Z,997.31
2023-05-01T03:03:37.181Z,997.29
2023-05-01T03:04:37.274Z,997.27
2023-05-01T03:05:37.149Z,997.26
2023-05-01T03:06:37.197Z,997.26
2023-05-01T03:07:37.145Z,997.26
2023-05-01T03:08:37.160Z,997.26
2023-05-01T03:09:37.108Z,997.26
2023-05-01T03:10:37.115Z,997.25
2023-05-01T03:11:37.108Z,997.25
2023-05-01T03:12:37.092Z,997.24
2023-05-01T03:13:37.069Z,997.22
2023-05-01T03:14:37.093Z,997.19
2023-05-01T03:15:37.044Z,997.16
2023-05-01T03:16:37.079Z,997.14
2023-05-01T03:17:37.107Z,997.13
2023-05-01T03:18:37.056Z,997.13
2023-05-01T03:19:37.006Z,997.13
2023-05-01T03:20:37.019Z,997.12
2023-05-01T03:21:36.992Z,997.13
2023-05-01T03:22:37.012Z,997.13
2023-05-01T03:23:36.991Z,997.13
2023-05-01T03:24:36.984Z,997.13
2023-05-01T03:25:36.935Z,997.13
2023-05-01T03:26:36.987Z,997.12
2023-05-01T03:27:36.861Z,997.12
2023-05-01T03:28:36.942Z,997.11
2023-05-01T03:29:36.853Z,997.11
2023-05-01T03:30:36.885Z,997.10
2023-05-01T03:31:36.861Z,997.10
2023-05-01T03:32:36.992Z,997.10
2023-05-01T03:33:36.886Z,997.10
2023-05-01T03:34:36.842Z,997.10
2023-05-01T03:35:36.859Z,997.09
2023-05-01T03:36:36.829Z,997.09
2023-05-01T03:37:36.784Z,997.08
2023-05-01T03:38:36.765Z,997.06
2023-05-01T03:39:36.739Z,997.05
2023-05-01T03:40:36.752Z,997.04
2023-05-01T03:41:36.737Z,997.04
2023-05-01T03:42:36.734Z,997.03
2023-05-01T03:43:36.726Z,997.03
2023-05-01T03:44:36.725Z,997.03
2023-05-01T03:45:36.700Z,997.04
2023-05-01T03:46:36.788Z,997.03
2023-05-01T03:47:36.713Z,997.04
2023-05-01T03:48:36.708Z,997.04
2023-05-01T03:49:36.653Z,997.04
2023-05-01T03:50:36.688Z,997.04
2023-05-01T03:51:36.606Z,997.04
2023-05-01T03:52:36.629Z,997.05
2023-05-01T03:53:36.594Z,997.04
2023-05-01T03:54:36.668Z,997.05
2023-05-01T03:55:36.580Z,997.04
2023-05-01T03:56:36.618Z,997.04
2023-05-01T03:57:36.546Z,997.03
2023-05-01T03:58:36.587Z,997.02
2023-05-01T03:59:36.523Z,997.02
2023-05-01T04:00:36.578Z,997.01
2023-05-01T04:01:36.515Z,997.00
2023-05-01T04:02:36.668Z,996.99
2023-05-01T04:03:36.643Z,997.00
2023-05-01T04:04:36.647Z,997.00
2023-05-01T04:05:36.472Z,996.99
2023-05-01T04:06:36.527Z,996.98
2023-05-01T04:07:36.483Z,996.97
2023-05-01T04:08:36.471Z,996.98
2023-05-01T04:09:36.479Z,996.96
2023-05-01T04:10:36.481Z,996.95
2023-05-01T04:11:36.410Z,996.95
2023-05-01T04:12:36.425Z,996.96
2023-05-01T04:13:36.391Z,996.94
2023-05-01T04:14:36.439Z,996.93
2023-05-01T04:15:36.369Z,996.92
2023-05-01T04:16:36.556Z,996.90
2023-05-01T04:17:36.399Z,996.89
2023-05-01T04:18:36.396Z,996.90
2023-05-01T04:19:36.335Z,996.90
2023-05-01T04:20:36.345Z,996.90
2023-05-01T04:21:36.353Z,996.90
2023-05-01T04:22:36.321Z,996.89
2023-05-01T04:23:36.285Z,996.88
2023-05-01T04:24:36.315Z,996.88
2023-05-01T04:25:36.303Z,996.88
2023-05-01T04:26:36.310Z,996.89
2023-05-01T04:27:36.237Z,996.89
2023-05-01T04:28:36.268Z,996.89
2023-05-01T04:29:36.224Z,996.89
2023-05-01T04:30:36.238Z,996.88
2023-05-01T04:31:36.381Z,996.88
2023-05-01T04:32:36.244Z,996.88
2023-05-01T04:33:36.229Z,996.88
2023-05-01T04:34:36.203Z,996.87
2023-05-01T04:35:36.168Z,996.86
2023-05-01T04:36:36.172Z,996.85
2023-05-01T04:37:36.162Z,996.85
2023-05-01T04:38:36.150Z,996.85
2023-05-01T04:39:36.130Z,996.84
2023-05-01T04:40:36.149Z,996.83
2023-05-01T04:41:36.100Z,996.83
2023-05-01T04:42:36.147Z,996.84
2023-05-01T04:43:36.084Z,996.85
2023-05-01T04:44:36.109Z,996.87
2023-05-01T04:45:36.062Z,996.87
2023-05-01T04:46:36.112Z,996.86
2023-05-01T04:47:36.093Z,996.85
2023-05-01T04:48:36.061Z,996.85
2023-05-01T04:49:36.024Z,996.84
2023-05-01T04:50:36.024Z,996.84
2023-05-01T04:51:36.024Z,996.85
2023-05-01T04:52:36.089Z,996.86
2023-05-01T04:53:35.984Z,996.86
2023-05-01T04:54:36.024Z,996.87
2023-05-01T04:55:35.987Z,996.86
2023-05-01T04:56:35.986Z,996.85
2023-05-01T04:57:35.925Z,996.84
2023-05-01T04:58:35.955Z,996.84
2023-05-01T04:59:35.962Z,996.84
2023-05-01T05:00:35.946Z,996.85
2023-05-01T05:01:35.913Z,996.85
2023-05-01T05:02:35.985Z,996.85
2023-05-01T05:03:36.071Z,996.85
2023-05-01T05:04:35.912Z,996.84
2023-05-01T05:05:35.868Z,996.84
2023-05-01T05:06:35.941Z,996.83
2023-05-01T05:07:35.830Z,996.82
2023-05-01T05:08:35.865Z,996.82
2023-05-01T05:09:35.817Z,996.83
2023-05-01T05:10:35.828Z,996.82
2023-05-01T05:11:35.824Z,996.83
2023-05-01T05:12:35.798Z,996.84
2023-05-01T05:13:35.802Z,996.84
2023-05-01T05:14:35.784Z,996.84
2023-05-01T05:15:35.749Z,996.83
2023-05-01T05:16:35.819Z,996.83
2023-05-01T05:17:35.779Z,996.83
2023-05-01T05:18:35.766Z,996.84
2023-05-01T05:19:35.706Z,996.85
2023-05-01T05:20:35.712Z,996.85
2023-05-01T05:21:35.713Z,996.85
2023-05-01T05:22:35.732Z,996.84
2023-05-01T05:23:35.684Z,996.83
2023-05-01T05:24:35.678Z,996.83
2023-05-01T05:25:35.659Z,996.83
2023-05-01T05:26:35.694Z,996.84
2023-05-01T05:27:35.636Z,996.85
2023-05-01T05:28:35.630Z,996.85
2023-05-01T05:29:35.609Z,996.85
2023-05-01T05:30:35.635Z,996.85
2023-05-01T05:31:35.635Z,996.85
2023-05-01T05:32:35.648Z,996.85
2023-05-01T05:33:35.596Z,996.85
2023-05-01T05:34:35.605Z,996.85
2023-05-01T05:35:35.561Z,996.84
2023-05-01T05:36:35.590Z,996.84
2023-05-01T05:37:35.524Z,996.83
2023-05-01T05:38:35.533Z,996.83
2023-05-01T05:39:35.539Z,996.82
2023-05-01T05:40:35.555Z,996.81
2023-05-01T05:41:35.488Z,996.80
2023-05-01T05:42:35.495Z,996.80
2023-05-01T05:43:35.455Z,996.80
2023-05-01T05:44:35.468Z,996.79
2023-05-01T05:45:35.659Z,996.78
2023-05-01T05:46:35.520Z,996.78
2023-05-01T05:47:35.419Z,996.77
2023-05-01T05:48:35.431Z,996.78
2023-05-01T05:49:35.390Z,996.78
2023-05-01T05:50:35.437Z,996.78
2023-05-01T05:51:35.383Z,996.77
2023-05-01T05:52:35.414Z,996.76
2023-05-01T05:53:35.361Z,996.76
2023-05-01T05:54:35.397Z,996.76
2023-05-01T05:55:35.355Z,996.76
2023-05-01T05:56:35.384Z,996.76
2023-05-01T05:57:35.320Z,996.75
2023-05-01T05:58:35.345Z,996.74
2023-05-01T05:59:35.323Z,996.72
2023-05-01T06:00:35.336Z,996.72
2023-05-01T06:01:35.309Z,996.71
2023-05-01T06:02:35.436Z,996.71
2023-05-01T06:03:35.501Z,996.70
2023-05-01T06:04:35.285Z,996.69
2023-05-01T06:05:35.300Z,996.68
2023-05-01T06:06:35.308Z,996.68
2023-05-01T06:07:35.241Z,996.68
2023-05-01T06:08:35.244Z,996.67
2023-05-01T06:09:35.196Z,996.68
2023-05-01T06:10:35.226Z,996.68
2023-05-01T06:11:35.191Z,996.67
2023-05-01T06:12:37.433Z,996.68
2023-05-01T06:13:35.155Z,996.68
2023-05-01T06:14:35.193Z,996.67
2023-05-01T06:15:35.161Z,996.65
2023-05-01T06:16:35.256Z,996.63
2023-05-01T06:17:35.128Z,996.60
2023-05-01T06:18:35.147Z,996.60
2023-05-01T06:19:35.100Z,996.59
2023-05-01T06:20:35.122Z,996.59
2023-05-01T06:21:35.070Z,996.59
2023-05-01T06:22:35.068Z,996.58
2023-05-01T06:23:35.104Z,996.57
2023-05-01T06:24:35.049Z,996.56
2023-05-01T06:25:35.057Z,996.54
2023-05-01T06:26:35.035Z,996.53
2023-05-01T06:27:35.031Z,996.51
2023-05-01T06:28:35.021Z,996.50
2023-05-01T06:29:35.034Z,996.50
2023-05-01T06:30:34.992Z,996.50
2023-05-01T06:31:35.030Z,996.50
2023-05-01T06:32:35.032Z,996.49
2023-05-01T06:33:34.978Z,996.49
2023-05-01T06:34:34.970Z,996.47
2023-05-01T06:35:34.972Z,996.46
2023-05-01T06:36:34.932Z,996.45
2023-05-01T06:37:34.948Z,996.44
2023-05-01T06:38:34.895Z,996.43
2023-05-01T06:39:34.931Z,996.42
2023-05-01T06:40:34.884Z,996.42
2023-05-01T06:41:34.885Z,996.42
2023-05-01T06:42:34.856Z,996.42
2023-05-01T06:43:34.897Z,996.42
2023-05-01T06:44:34.829Z,996.41
2023-05-01T06:45:34.841Z,996.41
2023-05-01T06:46:34.852Z,996.40
2023-05-01T06:47:34.894Z,996.40
2023-05-01T06:48:34.813Z,996.40
2023-05-01T06:49:34.840Z,996.40
2023-05-01T06:50:34.775Z,996.40
2023-05-01T06:51:34.769Z,996.42
2023-05-01T06:52:34.768Z,996.43
2023-05-01T06:53:34.850Z,996.44
2023-05-01T06:54:34.739Z,996.43
2023-05-01T06:55:35.914Z,996.43
2023-05-01T06:56:34.699Z,996.43
2023-05-01T06:57:34.752Z,996.43
2023-05-01T06:58:34.687Z,996.43
2023-05-01T06:59:34.709Z,996.42
2023-05-01T07:00:34.738Z,996.41
2023-05-01T07:01:35.619Z,996.40
2023-05-01T07:02:34.775Z,996.39
2023-05-01T07:03:34.695Z,996.38
2023-05-01T07:04:34.624Z,996.38
2023-05-01T07:05:34.655Z,996.38
2023-05-01T07:06:34.635Z,996.38
2023-05-01T07:07:34.635Z,996.38
2023-05-01T07:08:34.578Z,996.38
2023-05-01T07:09:34.620Z,996.38
2023-05-01T07:10:34.557Z,996.37
2023-05-01T07:11:34.617Z,996.37
2023-05-01T07:12:34.576Z,996.36
2023-05-01T07:13:34.724Z,996.36
2023-05-01T07:14:34.517Z,996.36
2023-05-01T07:15:34.750Z,996.36
2023-05-01T07:16:34.544Z,996.35
2023-05-01T07:17:34.516Z,996.35
2023-05-01T07:18:34.486Z,996.34
2023-05-01T07:19:35.006Z,996.35
2023-05-01T07:20:34.459Z,996.34
2023-05-01T07:21:34.481Z,996.34
2023-05-01T07:22:34.455Z,996.32
2023-05-01T07:23:34.456Z,996.31
2023-05-01T07:24:35.222Z,996.31
2023-05-01T07:25:34.461Z,996.31
2023-05-01T07:26:34.396Z,996.31
2023-05-01T07:27:34.418Z,996.32
2023-05-01T07:28:34.384Z,996.32
2023-05-01T07:29:34.406Z,996.30
2023-05-01T07:30:34.416Z,996.29
2023-05-01T07:31:34.442Z,996.27
2023-05-01T07:32:34.360Z,996.27
2023-05-01T07:33:34.345Z,996.25
2023-05-01T07:34:34.316Z,996.24
2023-05-01T07:35:34.365Z,996.23
2023-05-01T07:36:34.292Z,996.22
2023-05-01T07:37:34.335Z,996.21
2023-05-01T07:38:34.270Z,996.20
2023-05-01T07:39:34.292Z,996.19
2023-05-01T07:40:34.270Z,996.18
2023-05-01T07:41:34.279Z,996.18
2023-05-01T07:42:34.251Z,996.16
2023-05-01T07:43:34.249Z,996.14
2023-05-01T07:44:34.207Z,996.12
2023-05-01T07:45:34.257Z,996.10
2023-05-01T07:46:34.268Z,996.09
2023-05-01T07:47:34.266Z,996.07
2023-05-01T07:48:34.413Z,996.07
2023-05-01T07:49:34.181Z,996.06
2023-05-01T07:50:34.143Z,996.05
2023-05-01T07:51:34.158Z,996.05
2023-05-01T07:52:34.145Z,996.04
2023-05-01T07:53:34.149Z,996.03
2023-05-01T07:54:34.144Z,996.01
2023-05-01T07:55:34.127Z,996.00
2023-05-01T07:56:34.097Z,996.00
2023-05-01T07:57:34.104Z,996.00
2023-05-01T07:58:34.129Z,995.99
2023-05-01T07:59:34.119Z,995.98
2023-05-01T08:00:34.044Z,995.97
2023-05-01T08:01:34.065Z,995.97
2023-05-01T08:02:34.142Z,995.95
2023-05-01T08:03:34.148Z,995.94
2023-05-01T08:04:34.118Z,995.93
2023-05-01T08:05:34.041Z,995.91
2023-05-01T08:06:34.061Z,995.89
2023-05-01T08:07:33.995Z,995.87
2023-05-01T08:08:33.970Z,995.86
2023-05-01T08:09:33.986Z,995.85
2023-05-01T08:10:33.942Z,995.85
2023-05-01T08:11:33.955Z,995.84
2023-05-01T08:12:33.935Z,995.84
2023-05-01T08:13:34.080Z,995.83
2023-05-01T08:14:33.946Z,995.83
2023-05-01T08:15:33.930Z,995.83
2023-05-01T08:16:33.994Z,995.82
2023-05-01T08:17:33.967Z,995.82
2023-05-01T08:18:33.865Z,995.81
2023-05-01T08:19:33.881Z,995.80
2023-05-01T08:20:33.870Z,995.79
2023-05-01T08:21:33.893Z,995.79
2023-05-01T08:22:33.817Z,995.78
2023-05-01T08:23:33.836Z,995.79
2023-05-01T08:24:33.804Z,995.79
2023-05-01T08:25:33.827Z,995.78
2023-05-01T08:26:33.813Z,995.77
2023-05-01T08:27:33.810Z,995.75
2023-05-01T08:28:33.752Z,995.75
2023-05-01T08:29:33.768Z,995.75
2023-05-01T08:30:33.742Z,995.74
2023-05-01T08:31:33.820Z,995.73
2023-05-01T08:32:33.745Z,995.71
2023-05-01T08:33:33.727Z,995.70
2023-05-01T08:34:33.703Z,995.69
2023-05-01T08:35:33.711Z,995.68
2023-05-01T08:36:33.714Z,995.66
2023-05-01T08:37:34.345Z,995.64
2023-05-01T08:38:33.679Z,995.64
2023-05-01T08:39:33.675Z,995.63
2023-05-01T08:40:33.634Z,995.62
2023-05-01T08:41:33.673Z,995.60
2023-05-01T08:42:33.611Z,995.60
2023-05-01T08:43:33.639Z,995.60
2023-05-01T08:44:33.593Z,995.60
2023-05-01T08:45:33.648Z,995.59
2023-05-01T08:46:33.592Z,995.58
2023-05-01T08:47:33.600Z,995.59
2023-05-01T08:48:33.577Z,995.58
2023-05-01T08:49:33.562Z,995.58
2023-05-01T08:50:33.537Z,995.57
2023-05-01T08:51:33.556Z,995.56
2023-05-01T08:52:33.538Z,995.55
2023-05-01T08:53:33.511Z,995.55
2023-05-01T08:54:33.515Z,995.54
2023-05-01T08:55:33.494Z,995.53
2023-05-01T08:56:33.461Z,995.52
2023-05-01T08:57:33.487Z,995.53
2023-05-01T08:58:33.442Z,995.53
2023-05-01T08:59:33.459Z,995.53
2023-05-01T09:00:33.441Z,995.50
2023-05-01T09:01:33.481Z,995.50
2023-05-01T09:02:33.411Z,995.49
2023-05-01T09:03:33.480Z,995.48
2023-05-01T09:04:33.721Z,995.47
2023-05-01T09:05:33.390Z,995.45
2023-05-01T09:06:33.401Z,995.44
2023-05-01T09:07:33.368Z,995.41
2023-05-01T09:08:33.327Z,995.42
2023-05-01T09:09:33.354Z,995.41
2023-05-01T09:10:33.352Z,995.42
2023-05-01T09:11:33.320Z,995.42
2023-05-01T09:12:33.288Z,995.41
2023-05-01T09:13:33.322Z,995.39
2023-05-01T09:14:33.265Z,995.39
2023-05-01T09:15:33.284Z,995.38
2023-05-01T09:16:33.304Z,995.37
2023-05-01T09:17:33.347Z,995.37
2023-05-01T09:18:33.265Z,995.36
2023-05-01T09:19:33.253Z,995.35
2023-05-01T09:20:33.229Z,995.35
2023-05-01T09:21:33.218Z,995.34
2023-05-01T09:22:33.192Z,995.36
2023-05-01T09:23:33.225Z,995.34
2023-05-01T09:24:33.183Z,995.34
2023-05-01T09:25:33.180Z,995.35
2023-05-01T09:26:33.152Z,995.35
2023-05-01T09:27:33.164Z,995.34
2023-05-01T09:28:33.145Z,995.32
2023-05-01T09:29:33.134Z,995.32
2023-05-01T09:30:33.129Z,995.30
2023-05-01T09:31:33.131Z,995.28
2023-05-01T09:32:33.117Z,995.29
2023-05-01T09:33:33.122Z,995.27
2023-05-01T09:34:33.066Z,995.26
2023-05-01T09:35:33.074Z,995.24
2023-05-01T09:36:33.028Z,995.22
2023-05-01T09:37:33.052Z,995.26
2023-05-01T09:38:33.057Z,995.29
2023-05-01T09:39:33.034Z,995.29
2023-05-01T09:40:33.006Z,995.27
2023-05-01T09:41:33.041Z,995.24
2023-05-01T09:42:32.977Z,995.22
2023-05-01T09:43:33.024Z,995.23
2023-05-01T09:44:32.975Z,995.24
2023-05-01T09:45:32.966Z,995.18
2023-05-01T09:46:33.061Z,995.16
2023-05-01T09:47:32.986Z,995.17
2023-05-01T09:48:35.364Z,995.16
2023-05-01T09:49:32.935Z,995.14
2023-05-01T09:50:32.924Z,995.12
2023-05-01T09:51:33.048Z,995.13
2023-05-01T09:52:32.877Z,995.11
2023-05-01T09:53:32.892Z,995.11
2023-05-01T09:54:32.848Z,995.09
2023-05-01T09:55:35.877Z,995.06
2023-05-01T09:56:32.852Z,995.06
2023-05-01T09:57:33.426Z,995.05
2023-05-01T09:58:32.808Z,995.05
2023-05-01T09:59:32.844Z,995.03
2023-05-01T10:00:32.790Z,995.05
2023-05-01T10:01:32.944Z,995.05
2023-05-01T10:02:32.870Z,995.02
2023-05-01T10:03:32.948Z,995.04
2023-05-01T10:04:32.762Z,995.03
2023-05-01T10:05:33.070Z,995.03
2023-05-01T10:06:32.771Z,995.02
2023-05-01T10:07:32.742Z,995.00
2023-05-01T10:08:32.708Z,994.99
2023-05-01T10:09:32.740Z,994.99
2023-05-01T10:10:33.231Z,994.98
2023-05-01T10:11:32.703Z,994.97
2023-05-01T10:12:32.677Z,995.01
2023-05-01T10:13:32.674Z,994.98
2023-05-01T10:14:32.651Z,994.96
2023-05-01T10:15:32.731Z,994.98
2023-05-01T10:16:32.636Z,995.00
2023-05-01T10:17:32.681Z,995.00
2023-05-01T10:18:32.597Z,995.00
2023-05-01T10:19:32.612Z,995.02
2023-05-01T10:20:32.960Z,994.99
2023-05-01T10:21:32.621Z,994.97
2023-05-01T10:22:32.589Z,995.00
2023-05-01T10:23:32.583Z,994.98
2023-05-01T10:24:32.545Z,994.94
2023-05-01T10:25:32.565Z,994.93
2023-05-01T10:26:32.542Z,994.89
2023-05-01T10:27:32.559Z,994.90
2023-05-01T10:28:32.508Z,994.88
2023-05-01T10:29:32.691Z,994.85
2023-05-01T10:30:32.481Z,994.85
2023-05-01T10:31:32.539Z,994.84
2023-05-01T10:32:32.562Z,994.84
2023-05-01T10:33:32.480Z,994.81
2023-05-01T10:34:32.472Z,994.80
2023-05-01T10:35:32.455Z,994.79
2023-05-01T10:36:32.427Z,994.76
2023-05-01T10:37:32.440Z,994.76
2023-05-01T10:38:32.457Z,994.74
2023-05-01T10:39:32.414Z,994.73
2023-05-01T10:40:32.427Z,994.72
2023-05-01T10:41:32.386Z,994.73
2023-05-01T10:42:32.374Z,994.74
2023-05-01T10:43:32.369Z,994.73
2023-05-01T10:44:32.380Z,994.73
2023-05-01T10:45:33.874Z,994.73
2023-05-01T10:46:32.537Z,994.71
2023-05-01T10:47:32.331Z,994.68
2023-05-01T10:48:32.334Z,994.68
2023-05-01T10:49:32.299Z,994.68
2023-05-01T10:50:32.328Z,994.64
2023-05-01T10:51:32.287Z,994.64
2023-05-01T10:52:32.334Z,994.60
2023-05-01T10:53:32.259Z,994.59
2023-05-01T10:54:32.277Z,994.56
2023-05-01T10:55:32.220Z,994.57
2023-05-01T10:56:32.235Z,994.57
2023-05-01T10:57:32.198Z,994.57
2023-05-01T10:58:32.205Z,994.59
2023-05-01T10:59:32.197Z,994.58
2023-05-01T11:00:32.180Z,994.57
2023-05-01T11:01:32.271Z,994.60
2023-05-01T11:02:32.195Z,994.58
2023-05-01T11:03:32.137Z,994.55
2023-05-01T11:04:32.142Z,994.51
2023-05-01T11:05:38.162Z,994.53
2023-05-01T11:06:32.367Z,994.55
2023-05-01T11:07:32.148Z,994.52
2023-05-01T11:08:32.141Z,994.50
2023-05-01T11:09:32.075Z,994.51
2023-05-01T11:10:32.083Z,994.49
2023-05-01T11:11:32.066Z,994.45
2023-05-01T11:12:32.090Z,994.43
2023-05-01T11:13:32.025Z,994.40
2023-05-01T11:14:32.040Z,994.39
2023-05-01T11:15:32.014Z,994.41
2023-05-01T11:16:32.049Z,994.40
2023-05-01T11:17:32.045Z,994.38
2023-05-01T11:18:32.022Z,994.35
2023-05-01T11:19:31.970Z,994.34
2023-05-01T11:20:31.981Z,994.35
2023-05-01T11:21:31.952Z,994.35
2023-05-01T11:22:32.059Z,994.35
2023-05-01T11:23:31.943Z,994.33
2023-05-01T11:24:31.939Z,994.30
2023-05-01T11:25:31.934Z,994.31
2023-05-01T11:26:32.662Z,994.28
2023-05-01T11:27:31.889Z,994.26
2023-05-01T11:28:31.913Z,994.27
2023-05-01T11:29:31.883Z,994.29
2023-05-01T11:30:31.870Z,994.29
2023-05-01T11:31:31.873Z,994.29
2023-05-01T11:32:31.882Z,994.30
2023-05-01T11:33:31.845Z,994.31
2023-05-01T11:34:31.876Z,994.32
2023-05-01T11:35:31.796Z,994.31
2023-05-01T11:36:31.815Z,994.27
2023-05-01T11:37:31.780Z,994.29
2023-05-01T11:38:31.788Z,994.28
2023-05-01T11:39:31.783Z,994.26
2023-05-01T11:40:31.776Z,994.28
2023-05-01T11:41:31.734Z,994.25
2023-05-01T11:42:31.777Z,994.25
2023-05-01T11:43:31.718Z,994.25
2023-05-01T11:44:31.743Z,994.27
2023-05-01T11:45:31.753Z,994.24
2023-05-01T11:46:31.878Z,994.22
2023-05-01T11:47:31.734Z,994.21
2023-05-01T11:48:31.735Z,994.20
2023-05-01T11:49:31.657Z,994.22
2023-05-01T11:50:31.669Z,994.20
2023-05-01T11:51:31.636Z,994.19
2023-05-01T11:52:31.654Z,994.17
2023-05-01T11:53:31.617Z,994.18
2023-05-01T11:54:31.677Z,994.17
2023-05-01T11:55:31.613Z,994.17
2023-05-01T11:56:31.627Z,994.17
2023-05-01T11:57:31.612Z,994.16
2023-05-01T11:58:31.585Z,994.19
2023-05-01T11:59:31.564Z,994.15
2023-05-01T12:00:31.560Z,994.18
2023-05-01T12:01:31.562Z,994.17
2023-05-01T12:02:31.589Z,994.16
2023-05-01T12:03:31.583Z,994.18
2023-05-01T12:04:32.456Z,994.14
2023-05-01T12:05:31.493Z,994.13
2023-05-01T12:06:31.567Z,994.14
2023-05-01T12:07:31.474Z,994.13
2023-05-01T12:08:31.498Z,994.12
2023-05-01T12:09:31.477Z,994.12
2023-05-01T12:10:32.623Z,994.12
2023-05-01T12:11:31.461Z,994.10
2023-05-01T12:12:31.447Z,994.10
2023-05-01T12:13:31.439Z,994.09
2023-05-01T12:14:31.414Z,994.08
2023-05-01T12:15:31.383Z,994.07
2023-05-01T12:16:31.450Z,994.05
2023-05-01T12:17:31.452Z,994.07
2023-05-01T12:18:31.376Z,994.06
2023-05-01T12:19:31.366Z,994.05
2023-05-01T12:20:31.364Z,994.08
2023-05-01T12:21:31.369Z,994.06
2023-05-01T12:22:31.339Z,994.05
2023-05-01T12:23:31.310Z,994.06
2023-05-01T12:24:31.319Z,994.04
2023-05-01T12:25:31.289Z,994.02
2023-05-01T12:26:31.338Z,994.05
2023-05-01T12:27:31.288Z,994.04
2023-05-01T12:28:31.289Z,994.04